Time;durP1;ratioP1;P1;durP2;ratioP2;P2;SDS_P1;SDS_P2;PMS_P1;PMS_P2;Temp;Humidity;BMP_temperature;BMP_pressure;BME280_temperature;BME280_humidity;BME280_pressure;Samples;Min_cycle;Max_cycle;Signal;HPM_P1;HPM_P2
2022/09/09 00:00:16;;;;;;;2.20;0.98;;;;;;;;;;7393761;19;20011;-78
2022/09/09 00:02:54;;;;;;;2.33;0.77;;;;;;;;;;7396565;19;20016;-78
2022/09/09 00:05:40;;;;;;;0.57;0.57;;;;;;;;;;7398244;19;20089;-78
2022/09/09 00:08:21;;;;;;;2.03;0.52;;;;;;;;;;7396242;19;20043;-78
2022/09/09 00:10:58;;;;;;;2.75;0.75;;;;;;;;;;7392158;19;20006;-78
2022/09/09 00:14:08;;;;;;;0.45;0.45;;;;;;;;;;7393100;19;20405;-78
2022/09/09 00:16:37;;;;;;;1.02;0.65;;;;;;;;;;7388403;19;20010;-78
2022/09/09 00:19:24;;;;;;;0.90;0.50;;;;;;;;;;7387771;19;20024;-78
2022/09/09 00:22:13;;;;;;;2.50;0.50;;;;;;;;;;7388063;19;20031;-78
2022/09/09 00:24:49;;;;;;;0.93;0.57;;;;;;;;;;7393447;19;20032;-79
2022/09/09 00:27:37;;;;;;;0.80;0.63;;;;;;;;;;7392310;19;19998;-78
2022/09/09 00:30:19;;;;;;;2.42;0.60;;;;;;;;;;7394001;19;20017;-78
2022/09/09 00:32:45;;;;;;;1.02;0.68;;;;;;;;;;7394527;19;20006;-78
2022/09/09 00:35:17;;;;;;;0.50;0.50;;;;;;;;;;7395117;19;20476;-78
2022/09/09 00:37:45;;;;;;;0.98;0.70;;;;;;;;;;7392499;19;20012;-77
2022/09/09 00:40:24;;;;;;;1.58;0.75;;;;;;;;;;7390045;19;20376;-78
2022/09/09 00:42:58;;;;;;;0.75;0.50;;;;;;;;;;7390650;19;20021;-78
2022/09/09 00:45:34;;;;;;;0.50;0.50;;;;;;;;;;7386620;19;20035;-78
2022/09/09 00:48:08;;;;;;;2.63;0.50;;;;;;;;;;7392157;19;20050;-79
2022/09/09 00:51:02;;;;;;;1.20;1.00;;;;;;;;;;7393326;19;20006;-78
2022/09/09 00:54:11;;;;;;;0.57;0.57;;;;;;;;;;7393551;19;20010;-78
2022/09/09 00:56:42;;;;;;;0.63;0.50;;;;;;;;;;7387393;19;20028;-78
2022/09/09 00:59:10;;;;;;;0.57;0.50;;;;;;;;;;7384178;19;20028;-78
2022/09/09 01:01:35;;;;;;;0.90;0.40;;;;;;;;;;7387255;19;20011;-78
2022/09/09 01:04:05;;;;;;;0.73;0.60;;;;;;;;;;7392779;19;20024;-78
2022/09/09 01:06:33;;;;;;;0.38;0.32;;;;;;;;;;7392528;19;20014;-77
2022/09/09 01:09:23;;;;;;;0.40;0.40;;;;;;;;;;7244576;19;2851893;-78
2022/09/09 01:12:00;;;;;;;0.60;0.55;;;;;;;;;;7390615;19;20017;-78
2022/09/09 01:14:37;;;;;;;0.40;0.35;;;;;;;;;;7392700;19;20019;-77
2022/09/09 01:17:26;;;;;;;1.17;0.90;;;;;;;;;;7391483;19;20071;-78
2022/09/09 01:20:19;;;;;;;0.70;0.65;;;;;;;;;;7391093;19;20002;-78
2022/09/09 01:22:50;;;;;;;0.70;0.70;;;;;;;;;;7394976;19;20026;-78
2022/09/09 01:25:27;;;;;;;0.95;0.60;;;;;;;;;;7393954;19;20006;-78
2022/09/09 01:27:57;;;;;;;1.58;0.70;;;;;;;;;;7396436;19;20488;-79
2022/09/09 01:30:23;;;;;;;0.80;0.70;;;;;;;;;;7398153;19;20021;-79
2022/09/09 01:32:51;;;;;;;1.17;0.70;;;;;;;;;;7393614;19;20014;-78
2022/09/09 01:35:31;;;;;;;1.60;0.82;;;;;;;;;;7392362;19;20014;-78
2022/09/09 01:37:56;;;;;;;1.05;0.65;;;;;;;;;;7392253;19;20006;-78
2022/09/09 01:40:22;;;;;;;0.40;0.40;;;;;;;;;;7394341;19;19998;-78
2022/09/09 01:42:48;;;;;;;0.52;0.52;;;;;;;;;;7394995;19;20018;-78
2022/09/09 01:45:13;;;;;;;0.63;0.63;;;;;;;;;;7397033;19;20019;-78
2022/09/09 01:47:39;;;;;;;0.57;0.47;;;;;;;;;;7394018;19;20003;-78
2022/09/09 01:50:05;;;;;;;2.15;0.57;;;;;;;;;;7395510;19;20733;-77
2022/09/09 01:52:39;;;;;;;1.80;0.55;;;;;;;;;;7394606;19;20664;-78
2022/09/09 01:55:05;;;;;;;6.97;1.50;;;;;;;;;;7396374;19;19990;-78
2022/09/09 01:57:37;;;;;;;1.27;0.68;;;;;;;;;;7394689;19;20010;-78
2022/09/09 02:00:10;;;;;;;1.13;0.60;;;;;;;;;;7390836;19;20108;-78
2022/09/09 02:02:44;;;;;;;1.88;0.60;;;;;;;;;;7393556;19;20025;-78
2022/09/09 02:05:27;;;;;;;0.60;0.60;;;;;;;;;;7395615;19;20006;-78
2022/09/09 02:08:19;;;;;;;1.00;0.38;;;;;;;;;;7395962;19;20476;-78
2022/09/09 02:10:53;;;;;;;0.93;0.47;;;;;;;;;;7393918;19;20021;-77
2022/09/09 02:13:20;;;;;;;2.25;0.60;;;;;;;;;;7393633;19;20077;-77
2022/09/09 02:16:03;;;;;;;0.55;0.55;;;;;;;;;;7397014;19;20066;-77
2022/09/09 02:18:49;;;;;;;1.65;0.70;;;;;;;;;;7395947;19;20014;-78
2022/09/09 02:21:16;;;;;;;0.88;0.50;;;;;;;;;;7392999;19;20086;-78
2022/09/09 02:23:43;;;;;;;0.57;0.57;;;;;;;;;;7392851;19;19995;-78
2022/09/09 02:26:14;;;;;;;1.00;0.70;;;;;;;;;;7391367;19;20017;-78
2022/09/09 02:28:41;;;;;;;1.20;0.82;;;;;;;;;;7392481;19;20015;-78
2022/09/09 02:31:07;;;;;;;1.02;0.70;;;;;;;;;;7394763;19;21618;-78
2022/09/09 02:33:38;;;;;;;1.50;0.68;;;;;;;;;;7395324;19;20036;-78
2022/09/09 02:36:07;;;;;;;1.52;0.50;;;;;;;;;;7395437;19;20023;-78
2022/09/09 02:38:39;;;;;;;0.65;0.60;;;;;;;;;;7393581;19;20129;-78
2022/09/09 02:41:06;;;;;;;0.47;0.47;;;;;;;;;;7394627;19;20014;-78
2022/09/09 02:43:33;;;;;;;1.90;0.63;;;;;;;;;;7395612;19;20006;-78
2022/09/09 02:46:26;;;;;;;0.63;0.45;;;;;;;;;;7395064;19;20010;-78
2022/09/09 02:49:05;;;;;;;2.72;0.50;;;;;;;;;;7393015;19;20433;-77
2022/09/09 02:52:00;;;;;;;1.73;0.75;;;;;;;;;;7394353;19;20013;-78
2022/09/09 02:54:30;;;;;;;0.40;0.40;;;;;;;;;;7394047;19;20476;-77
2022/09/09 02:56:58;;;;;;;2.65;0.70;;;;;;;;;;7393730;19;20139;-78
2022/09/09 02:59:25;;;;;;;0.40;0.40;;;;;;;;;;7395127;19;20029;-78
2022/09/09 03:01:50;;;;;;;0.50;0.50;;;;;;;;;;7401322;19;20011;-78
2022/09/09 03:04:15;;;;;;;0.70;0.60;;;;;;;;;;7401466;19;20390;-78
2022/09/09 03:06:41;;;;;;;1.05;0.65;;;;;;;;;;7402641;19;20010;-78
2022/09/09 03:09:07;;;;;;;1.77;0.75;;;;;;;;;;7397394;19;20002;-78
2022/09/09 03:11:33;;;;;;;0.85;0.68;;;;;;;;;;7401562;19;20543;-78
2022/09/09 03:13:58;;;;;;;0.65;0.65;;;;;;;;;;7399291;19;20023;-78
2022/09/09 03:16:23;;;;;;;0.95;0.77;;;;;;;;;;7401979;19;20010;-77
2022/09/09 03:18:49;;;;;;;0.98;0.40;;;;;;;;;;7398580;19;20118;-78
2022/09/09 03:21:15;;;;;;;0.80;0.50;;;;;;;;;;7398256;19;20006;-78
2022/09/09 03:23:40;;;;;;;0.90;0.50;;;;;;;;;;7398512;19;20444;-78
2022/09/09 03:26:05;;;;;;;1.33;0.75;;;;;;;;;;7399516;19;20067;-79
2022/09/09 03:28:31;;;;;;;2.35;0.60;;;;;;;;;;7398770;19;20010;-79
2022/09/09 03:31:04;;;;;;;3.22;0.57;;;;;;;;;;7397740;19;20035;-79
2022/09/09 03:33:30;;;;;;;0.88;0.80;;;;;;;;;;7395078;19;20014;-78
2022/09/09 03:35:56;;;;;;;0.80;0.60;;;;;;;;;;7396460;19;20010;-78
2022/09/09 03:38:25;;;;;;;0.35;0.35;;;;;;;;;;7396178;19;20011;-78
2022/09/09 03:40:55;;;;;;;3.13;0.73;;;;;;;;;;7395724;19;20350;-77
2022/09/09 03:43:21;;;;;;;0.90;0.90;;;;;;;;;;7400206;19;20006;-78
2022/09/09 03:45:47;;;;;;;0.50;0.50;;;;;;;;;;7401156;19;20010;-78
2022/09/09 03:48:13;;;;;;;1.25;0.65;;;;;;;;;;7397685;19;20007;-78
2022/09/09 03:50:39;;;;;;;0.50;0.35;;;;;;;;;;7400419;19;20106;-78
2022/09/09 03:53:05;;;;;;;1.45;1.02;;;;;;;;;;7401729;19;20022;-78
2022/09/09 03:55:32;;;;;;;1.75;0.60;;;;;;;;;;7398174;19;20014;-78
2022/09/09 03:57:57;;;;;;;1.80;0.60;;;;;;;;;;7397738;19;20002;-78
2022/09/09 04:00:22;;;;;;;0.40;0.40;;;;;;;;;;7398422;19;20030;-78
2022/09/09 04:02:49;;;;;;;1.15;0.60;;;;;;;;;;7399764;19;20036;-78
2022/09/09 04:05:15;;;;;;;0.30;0.30;;;;;;;;;;7399548;19;20010;-78
2022/09/09 04:07:40;;;;;;;0.75;0.60;;;;;;;;;;7398662;19;20037;-78
2022/09/09 04:10:07;;;;;;;0.60;0.60;;;;;;;;;;7397647;19;20499;-78
2022/09/09 04:12:32;;;;;;;1.08;0.63;;;;;;;;;;7397910;19;20052;-80
2022/09/09 04:14:57;;;;;;;4.68;0.50;;;;;;;;;;7396115;19;20344;-77
2022/09/09 04:17:23;;;;;;;0.80;0.50;;;;;;;;;;7395395;19;20009;-77
2022/09/09 04:19:48;;;;;;;1.98;0.80;;;;;;;;;;7392381;19;20022;-76
2022/09/09 04:22:14;;;;;;;2.80;0.63;;;;;;;;;;7397037;19;20110;-77
2022/09/09 04:24:39;;;;;;;0.43;0.43;;;;;;;;;;7398418;19;20352;-79
2022/09/09 04:27:04;;;;;;;0.80;0.43;;;;;;;;;;7403462;19;20013;-78
2022/09/09 04:29:30;;;;;;;2.83;0.50;;;;;;;;;;7400886;19;20651;-78
2022/09/09 04:31:55;;;;;;;0.40;0.40;;;;;;;;;;7402848;19;20018;-78
2022/09/09 04:34:20;;;;;;;1.02;0.80;;;;;;;;;;7402113;19;20006;-78
2022/09/09 04:36:46;;;;;;;0.40;0.22;;;;;;;;;;7403678;19;19998;-78
2022/09/09 04:39:11;;;;;;;0.40;0.40;;;;;;;;;;7399296;19;20015;-79
2022/09/09 04:41:37;;;;;;;0.50;0.50;;;;;;;;;;7403599;19;20042;-78
2022/09/09 04:44:03;;;;;;;0.68;0.47;;;;;;;;;;7402879;19;20301;-79
2022/09/09 04:46:28;;;;;;;1.35;0.80;;;;;;;;;;7396768;19;19998;-78
2022/09/09 04:48:54;;;;;;;0.63;0.63;;;;;;;;;;7399990;19;20017;-79
2022/09/09 04:51:20;;;;;;;1.05;0.70;;;;;;;;;;7404134;19;20466;-78
2022/09/09 04:53:47;;;;;;;1.50;0.70;;;;;;;;;;7400579;19;20763;-78
2022/09/09 04:56:15;;;;;;;3.45;0.95;;;;;;;;;;7401444;19;20021;-78
2022/09/09 04:58:43;;;;;;;1.67;0.70;;;;;;;;;;7396089;19;20011;-77
2022/09/09 05:01:13;;;;;;;0.80;0.70;;;;;;;;;;7398013;19;20017;-78
2022/09/09 05:03:39;;;;;;;1.08;0.70;;;;;;;;;;7398293;19;20611;-79
2022/09/09 05:06:16;;;;;;;1.50;0.80;;;;;;;;;;7401740;19;19998;-79
2022/09/09 05:08:42;;;;;;;3.08;0.73;;;;;;;;;;7394935;19;20011;-78
2022/09/09 05:11:25;;;;;;;1.42;0.57;;;;;;;;;;7401496;19;20434;-79
2022/09/09 05:13:51;;;;;;;0.93;0.70;;;;;;;;;;7397349;19;20064;-79
2022/09/09 05:16:17;;;;;;;0.80;0.70;;;;;;;;;;7397896;19;20011;-79
2022/09/09 05:18:43;;;;;;;1.45;0.90;;;;;;;;;;7396929;19;20027;-78
2022/09/09 05:21:10;;;;;;;0.95;0.85;;;;;;;;;;7391799;19;20039;-78
2022/09/09 05:23:36;;;;;;;1.02;0.90;;;;;;;;;;7397695;19;20009;-80
2022/09/09 05:26:03;;;;;;;1.38;0.90;;;;;;;;;;7400915;19;20090;-78
2022/09/09 05:28:30;;;;;;;0.60;0.60;;;;;;;;;;7398443;19;20010;-79
2022/09/09 05:31:05;;;;;;;1.33;0.50;;;;;;;;;;7399050;19;20368;-79
2022/09/09 05:33:31;;;;;;;0.55;0.47;;;;;;;;;;7393040;19;20005;-78
2022/09/09 05:36:07;;;;;;;1.45;0.55;;;;;;;;;;7393540;19;20025;-80
2022/09/09 05:38:33;;;;;;;0.35;0.35;;;;;;;;;;7391016;19;20031;-78
2022/09/09 05:41:00;;;;;;;0.60;0.35;;;;;;;;;;7394646;19;20006;-79
2022/09/09 05:43:27;;;;;;;0.40;0.40;;;;;;;;;;7396933;19;20073;-79
2022/09/09 05:46:20;;;;;;;0.80;0.50;;;;;;;;;;7395602;19;20015;-79
2022/09/09 05:48:47;;;;;;;0.95;0.52;;;;;;;;;;7396024;19;20014;-78
2022/09/09 05:51:15;;;;;;;2.20;0.50;;;;;;;;;;7396109;19;20015;-78
2022/09/09 05:53:41;;;;;;;1.58;0.50;;;;;;;;;;7391400;19;20010;-78
2022/09/09 05:56:14;;;;;;;0.60;0.60;;;;;;;;;;7395817;19;20053;-79
2022/09/09 05:58:40;;;;;;;3.35;0.63;;;;;;;;;;7391296;19;20021;-77
2022/09/09 06:01:10;;;;;;;0.43;0.43;;;;;;;;;;7395461;19;20011;-79
2022/09/09 06:03:37;;;;;;;2.08;0.82;;;;;;;;;;7393535;19;20018;-78
2022/09/09 06:06:05;;;;;;;0.52;0.52;;;;;;;;;;7395972;19;20776;-78
2022/09/09 06:08:32;;;;;;;1.02;0.82;;;;;;;;;;7390422;19;20010;-79
2022/09/09 06:11:03;;;;;;;5.47;1.10;;;;;;;;;;7397148;19;20018;-80
2022/09/09 06:13:29;;;;;;;1.55;0.80;;;;;;;;;;7398249;19;20021;-78
2022/09/09 06:15:54;;;;;;;0.50;0.50;;;;;;;;;;7398352;19;20006;-79
2022/09/09 06:18:19;;;;;;;0.70;0.57;;;;;;;;;;7393583;19;20006;-78
2022/09/09 06:20:55;;;;;;;2.80;0.70;;;;;;;;;;7397007;19;20007;-80
2022/09/09 06:23:21;;;;;;;0.52;0.52;;;;;;;;;;7394701;19;20598;-80
2022/09/09 06:25:46;;;;;;;1.85;0.70;;;;;;;;;;7393832;19;20028;-78
2022/09/09 06:28:13;;;;;;;1.80;0.50;;;;;;;;;;7398273;19;20010;-78
2022/09/09 06:30:39;;;;;;;1.98;0.70;;;;;;;;;;7398075;19;20002;-78
2022/09/09 06:33:05;;;;;;;2.65;0.52;;;;;;;;;;7395951;19;20018;-79
2022/09/09 06:35:30;;;;;;;2.22;0.90;;;;;;;;;;7398774;19;20017;-79
2022/09/09 06:37:56;;;;;;;1.42;1.23;;;;;;;;;;7396881;19;20031;-79
2022/09/09 06:40:21;;;;;;;2.35;0.75;;;;;;;;;;7396901;19;20417;-78
2022/09/09 06:42:46;;;;;;;0.63;0.50;;;;;;;;;;7397834;19;20007;-78
2022/09/09 06:45:11;;;;;;;2.65;0.65;;;;;;;;;;7396183;19;20006;-79
2022/09/09 06:47:37;;;;;;;0.93;0.60;;;;;;;;;;7390560;19;20018;-79
2022/09/09 06:50:02;;;;;;;1.92;0.82;;;;;;;;;;7395382;19;20567;-78
2022/09/09 06:52:28;;;;;;;1.10;0.63;;;;;;;;;;7392637;19;20303;-78
2022/09/09 06:54:53;;;;;;;5.95;0.90;;;;;;;;;;7394052;19;20331;-79
2022/09/09 06:57:18;;;;;;;1.25;0.70;;;;;;;;;;7392803;19;20137;-80
2022/09/09 06:59:44;;;;;;;1.58;0.63;;;;;;;;;;7392446;19;20006;-77
2022/09/09 07:02:09;;;;;;;1.88;0.60;;;;;;;;;;7392302;19;20102;-78
2022/09/09 07:04:35;;;;;;;0.88;0.50;;;;;;;;;;7390705;19;20345;-78
2022/09/09 07:07:00;;;;;;;1.00;0.60;;;;;;;;;;7389451;19;20029;-78
2022/09/09 07:09:27;;;;;;;2.05;1.10;;;;;;;;;;7392190;19;20007;-78
2022/09/09 07:11:52;;;;;;;3.35;1.02;;;;;;;;;;7398217;19;20028;-78
2022/09/09 07:14:18;;;;;;;0.93;0.65;;;;;;;;;;7393388;19;20006;-77
2022/09/09 07:16:44;;;;;;;3.40;0.90;;;;;;;;;;7398311;19;20029;-78
2022/09/09 07:19:12;;;;;;;1.75;0.70;;;;;;;;;;7395406;19;20007;-81
2022/09/09 07:21:37;;;;;;;0.60;0.60;;;;;;;;;;7398714;19;20015;-78
2022/09/09 07:24:07;;;;;;;1.10;0.60;;;;;;;;;;7395512;19;20006;-80
2022/09/09 07:26:33;;;;;;;0.65;0.52;;;;;;;;;;7396291;19;20010;-79
2022/09/09 07:28:59;;;;;;;2.92;0.40;;;;;;;;;;7391373;19;20006;-77
2022/09/09 07:31:26;;;;;;;1.85;0.65;;;;;;;;;;7397687;19;20018;-77
2022/09/09 07:33:52;;;;;;;0.65;0.43;;;;;;;;;;7393354;19;20018;-76
2022/09/09 07:36:26;;;;;;;0.73;0.60;;;;;;;;;;7394620;19;20011;-78
2022/09/09 07:38:56;;;;;;;0.30;0.30;;;;;;;;;;7390983;19;20003;-78
2022/09/09 07:41:24;;;;;;;1.27;0.68;;;;;;;;;;7390315;19;20018;-77
2022/09/09 07:43:53;;;;;;;2.08;0.60;;;;;;;;;;7391074;19;20015;-77
2022/09/09 07:46:19;;;;;;;1.60;0.68;;;;;;;;;;7404783;19;20044;-79
2022/09/09 07:48:53;;;;;;;0.70;0.47;;;;;;;;;;7412943;19;20136;-77
2022/09/09 07:51:37;;;;;;;1.45;0.85;;;;;;;;;;7404800;19;19998;-77
2022/09/09 07:54:05;;;;;;;2.33;0.73;;;;;;;;;;7400404;19;20086;-78
2022/09/09 07:56:31;;;;;;;0.82;0.70;;;;;;;;;;7397133;19;20111;-76
2022/09/09 07:59:01;;;;;;;1.23;0.50;;;;;;;;;;7397583;19;20027;-76
2022/09/09 08:01:39;;;;;;;1.35;0.77;;;;;;;;;;7398300;19;20021;-76
2022/09/09 08:04:09;;;;;;;0.40;0.30;;;;;;;;;;7399929;19;20052;-78
2022/09/09 08:06:37;;;;;;;0.60;0.60;;;;;;;;;;7404348;19;20022;-77
2022/09/09 08:09:03;;;;;;;2.35;0.50;;;;;;;;;;7402233;19;20106;-76
2022/09/09 08:11:29;;;;;;;0.52;0.40;;;;;;;;;;7404709;19;20015;-77
2022/09/09 08:13:56;;;;;;;0.95;0.50;;;;;;;;;;7409269;19;20011;-77
2022/09/09 08:16:30;;;;;;;3.60;0.70;;;;;;;;;;7407366;19;20019;-77
2022/09/09 08:18:56;;;;;;;1.50;0.73;;;;;;;;;;7408607;19;20046;-79
2022/09/09 08:21:24;;;;;;;0.43;0.43;;;;;;;;;;7410126;19;20308;-79
2022/09/09 08:23:52;;;;;;;0.82;0.60;;;;;;;;;;7402015;19;20027;-77
2022/09/09 08:26:22;;;;;;;2.10;1.25;;;;;;;;;;7403143;19;20006;-77
2022/09/09 08:28:50;;;;;;;1.40;0.75;;;;;;;;;;7401247;19;20018;-78
2022/09/09 08:31:18;;;;;;;1.33;1.00;;;;;;;;;;7409165;19;20017;-77
2022/09/09 08:33:45;;;;;;;1.17;0.60;;;;;;;;;;7403139;19;20006;-77
2022/09/09 08:36:15;;;;;;;0.60;0.60;;;;;;;;;;7404508;19;20031;-78
2022/09/09 08:38:40;;;;;;;1.75;0.90;;;;;;;;;;7403903;19;20002;-76
2022/09/09 08:41:14;;;;;;;1.73;0.63;;;;;;;;;;7402765;19;20031;-77
2022/09/09 08:43:43;;;;;;;0.50;0.50;;;;;;;;;;7402967;19;20041;-75
2022/09/09 08:46:24;;;;;;;0.98;0.50;;;;;;;;;;7398975;19;20017;-79
2022/09/09 08:49:19;;;;;;;3.05;0.82;;;;;;;;;;7401057;19;20028;-77
2022/09/09 08:51:44;;;;;;;1.45;0.80;;;;;;;;;;7403165;19;20011;-77
2022/09/09 08:54:09;;;;;;;0.50;0.50;;;;;;;;;;7406971;19;20006;-79
2022/09/09 08:56:36;;;;;;;1.00;0.50;;;;;;;;;;7397398;19;20002;-79
2022/09/09 08:59:05;;;;;;;1.55;0.60;;;;;;;;;;7404617;19;20031;-77
2022/09/09 09:01:50;;;;;;;0.93;0.50;;;;;;;;;;7402044;19;20087;-76
2022/09/09 09:04:52;;;;;;;1.70;0.77;;;;;;;;;;7408101;19;20005;-78
2022/09/09 09:07:25;;;;;;;1.92;1.00;;;;;;;;;;7403146;19;20006;-77
2022/09/09 09:10:00;;;;;;;2.72;1.38;;;;;;;;;;7396239;19;20086;-77
2022/09/09 09:12:29;;;;;;;4.35;1.77;;;;;;;;;;7404971;19;20115;-79
2022/09/09 09:14:58;;;;;;;2.40;1.50;;;;;;;;;;7408971;19;20338;-77
2022/09/09 09:17:27;;;;;;;2.30;1.50;;;;;;;;;;7410614;19;20011;-77
2022/09/09 09:19:53;;;;;;;2.35;1.00;;;;;;;;;;7403598;19;20014;-77
2022/09/09 09:22:25;;;;;;;2.17;0.80;;;;;;;;;;7408379;19;20013;-77
2022/09/09 09:24:59;;;;;;;2.45;1.20;;;;;;;;;;7407669;19;20019;-79
2022/09/09 09:27:33;;;;;;;2.95;0.98;;;;;;;;;;7402060;19;20062;-77
2022/09/09 09:30:01;;;;;;;1.52;0.55;;;;;;;;;;7401878;19;20026;-77
2022/09/09 09:32:33;;;;;;;3.30;0.75;;;;;;;;;;7396691;19;20013;-78
2022/09/09 09:35:01;;;;;;;2.95;0.60;;;;;;;;;;7406427;19;20011;-78
2022/09/09 09:37:34;;;;;;;2.88;0.68;;;;;;;;;;7403643;19;20029;-77
2022/09/09 09:40:16;;;;;;;1.10;0.40;;;;;;;;;;7394107;19;20018;-76
2022/09/09 09:43:00;;;;;;;1.02;0.50;;;;;;;;;;7401789;19;20018;-77
2022/09/09 09:45:31;;;;;;;4.47;0.50;;;;;;;;;;7392788;19;20028;-75
2022/09/09 09:48:05;;;;;;;0.50;0.43;;;;;;;;;;7382873;19;20011;-76
2022/09/09 09:50:32;;;;;;;1.30;0.40;;;;;;;;;;7394249;19;20436;-76
2022/09/09 09:53:00;;;;;;;2.47;0.50;;;;;;;;;;7387308;19;20307;-76
2022/09/09 09:55:29;;;;;;;0.65;0.57;;;;;;;;;;7385840;19;20006;-77
2022/09/09 09:58:01;;;;;;;2.70;0.57;;;;;;;;;;7388899;19;20082;-76
2022/09/09 10:00:26;;;;;;;3.03;0.75;;;;;;;;;;7387107;19;20006;-76
2022/09/09 10:02:52;;;;;;;1.15;0.50;;;;;;;;;;7388860;19;20013;-75
2022/09/09 10:05:26;;;;;;;1.52;0.35;;;;;;;;;;7392102;19;20142;-75
2022/09/09 10:08:09;;;;;;;1.80;0.30;;;;;;;;;;7386618;19;20023;-75
2022/09/09 10:10:56;;;;;;;1.23;0.40;;;;;;;;;;7392790;19;20188;-76
2022/09/09 10:13:29;;;;;;;1.05;0.50;;;;;;;;;;7389759;19;20010;-75
2022/09/09 10:16:01;;;;;;;1.27;0.40;;;;;;;;;;7388629;19;20092;-76
2022/09/09 10:18:51;;;;;;;1.52;0.75;;;;;;;;;;7386582;19;20028;-76
2022/09/09 10:21:34;;;;;;;1.00;0.47;;;;;;;;;;7390031;19;20006;-75
2022/09/09 10:24:12;;;;;;;1.02;0.50;;;;;;;;;;7387203;19;20010;-75
2022/09/09 10:27:11;;;;;;;1.00;0.60;;;;;;;;;;7374422;19;20010;-75
2022/09/09 10:30:14;;;;;;;0.85;0.50;;;;;;;;;;7384902;19;20018;-76
2022/09/09 10:33:01;;;;;;;2.95;0.40;;;;;;;;;;7389267;19;20006;-76
2022/09/09 10:35:45;;;;;;;0.98;0.40;;;;;;;;;;7391479;19;20020;-75
2022/09/09 10:38:15;;;;;;;1.42;0.60;;;;;;;;;;7388631;19;20045;-76
2022/09/09 10:41:12;;;;;;;3.03;0.55;;;;;;;;;;7391066;19;20024;-77
2022/09/09 10:44:04;;;;;;;1.27;0.50;;;;;;;;;;7386691;19;20006;-75
2022/09/09 10:47:07;;;;;;;1.38;0.57;;;;;;;;;;7383678;19;20018;-74
2022/09/09 10:49:50;;;;;;;2.50;0.60;;;;;;;;;;7391237;19;20018;-75
2022/09/09 10:52:21;;;;;;;2.83;0.35;;;;;;;;;;7389662;19;20014;-76
2022/09/09 10:55:08;;;;;;;0.73;0.50;;;;;;;;;;7390196;19;20471;-76
2022/09/09 10:57:38;;;;;;;0.38;0.30;;;;;;;;;;7390051;19;20006;-76
2022/09/09 11:00:13;;;;;;;0.93;0.35;;;;;;;;;;7391725;19;20055;-76
2022/09/09 11:02:41;;;;;;;1.00;0.50;;;;;;;;;;7384646;19;20017;-75
2022/09/09 11:05:18;;;;;;;1.60;0.40;;;;;;;;;;7388252;19;20013;-75
2022/09/09 11:08:08;;;;;;;1.75;0.60;;;;;;;;;;7385397;19;20146;-76
2022/09/09 11:10:41;;;;;;;0.70;0.45;;;;;;;;;;7399476;19;20018;-76
2022/09/09 11:13:19;;;;;;;1.50;0.45;;;;;;;;;;7388602;19;20045;-78
2022/09/09 11:16:02;;;;;;;1.08;0.63;;;;;;;;;;7404894;19;20018;-79
2022/09/09 11:18:31;;;;;;;0.40;0.40;;;;;;;;;;7388846;19;20025;-77
2022/09/09 11:21:00;;;;;;;1.58;0.60;;;;;;;;;;7392051;19;20003;-78
2022/09/09 11:23:41;;;;;;;3.58;0.57;;;;;;;;;;7397403;19;20019;-76
2022/09/09 11:26:17;;;;;;;2.30;0.50;;;;;;;;;;7399320;19;20005;-78
2022/09/09 11:29:24;;;;;;;1.85;0.60;;;;;;;;;;7395897;19;20010;-76
2022/09/09 11:31:59;;;;;;;0.28;0.25;;;;;;;;;;7390523;19;20027;-77
2022/09/09 11:34:33;;;;;;;0.70;0.30;;;;;;;;;;7393440;19;20117;-77
2022/09/09 11:37:17;;;;;;;1.07;0.40;;;;;;;;;;7394592;19;20019;-78
2022/09/09 11:39:51;;;;;;;0.40;0.32;;;;;;;;;;7390358;19;20385;-78
2022/09/09 11:42:22;;;;;;;2.42;0.45;;;;;;;;;;7393512;19;20048;-78
2022/09/09 11:44:48;;;;;;;0.95;0.40;;;;;;;;;;7395327;19;20803;-78
2022/09/09 11:47:31;;;;;;;0.77;0.50;;;;;;;;;;7395687;19;20007;-78
2022/09/09 11:50:14;;;;;;;3.25;0.60;;;;;;;;;;7394829;19;20326;-76
2022/09/09 11:52:45;;;;;;;4.20;0.70;;;;;;;;;;7397355;19;19999;-79
2022/09/09 11:55:32;;;;;;;1.88;0.50;;;;;;;;;;7398448;19;20026;-76
2022/09/09 11:58:04;;;;;;;0.93;0.50;;;;;;;;;;7392843;19;20002;-77
2022/09/09 12:00:37;;;;;;;2.70;0.60;;;;;;;;;;7394887;19;20128;-75
2022/09/09 12:03:03;;;;;;;1.88;0.60;;;;;;;;;;7393129;19;20018;-79
2022/09/09 12:05:44;;;;;;;1.55;0.50;;;;;;;;;;7397545;19;20031;-76
2022/09/09 12:08:16;;;;;;;1.13;0.50;;;;;;;;;;7389808;19;20014;-77
2022/09/09 12:10:52;;;;;;;2.15;0.80;;;;;;;;;;7393646;19;20365;-77
2022/09/09 12:13:23;;;;;;;4.22;0.60;;;;;;;;;;7397180;19;20014;-76
2022/09/09 12:15:56;;;;;;;4.05;0.60;;;;;;;;;;7396468;19;20062;-77
2022/09/09 12:18:44;;;;;;;3.60;0.68;;;;;;;;;;7386717;19;20010;-76
2022/09/09 12:21:26;;;;;;;1.00;0.38;;;;;;;;;;7388821;19;20102;-76
2022/09/09 12:24:14;;;;;;;0.25;0.15;;;;;;;;;;7390256;19;20007;-76
2022/09/09 12:26:53;;;;;;;2.22;0.47;;;;;;;;;;7385330;19;20328;-76
2022/09/09 12:29:18;;;;;;;1.00;0.32;;;;;;;;;;7392839;19;20013;-77
2022/09/09 12:31:50;;;;;;;2.03;0.30;;;;;;;;;;7394759;19;20002;-76
2022/09/09 12:34:37;;;;;;;1.23;0.50;;;;;;;;;;7390307;19;20010;-76
2022/09/09 12:37:31;;;;;;;1.25;0.40;;;;;;;;;;7393802;19;20123;-77
2022/09/09 12:40:03;;;;;;;0.98;0.30;;;;;;;;;;7388049;19;20353;-76
2022/09/09 12:42:29;;;;;;;1.63;0.40;;;;;;;;;;7392385;19;20006;-76
2022/09/09 12:45:02;;;;;;;1.00;0.52;;;;;;;;;;7394137;19;20003;-76
2022/09/09 12:47:50;;;;;;;0.65;0.40;;;;;;;;;;7391990;19;20010;-76
2022/09/09 12:50:22;;;;;;;5.70;0.47;;;;;;;;;;7393166;19;20006;-76
2022/09/09 12:52:50;;;;;;;2.55;0.60;;;;;;;;;;7389681;19;20021;-75
2022/09/09 12:55:21;;;;;;;1.60;0.60;;;;;;;;;;7393847;19;20018;-77
2022/09/09 12:57:50;;;;;;;4.18;0.80;;;;;;;;;;7395701;19;19998;-75
2022/09/09 13:00:22;;;;;;;2.28;0.38;;;;;;;;;;7390905;19;20003;-76
2022/09/09 13:02:56;;;;;;;1.85;0.68;;;;;;;;;;7382823;19;20097;-77
2022/09/09 13:05:43;;;;;;;2.42;0.82;;;;;;;;;;7381070;19;20031;-77
2022/09/09 13:08:11;;;;;;;2.50;0.70;;;;;;;;;;7385288;19;20014;-77
2022/09/09 13:10:40;;;;;;;1.60;0.52;;;;;;;;;;7395314;19;20018;-77
2022/09/09 13:13:15;;;;;;;2.08;0.70;;;;;;;;;;7395205;19;20160;-77
2022/09/09 13:15:50;;;;;;;0.63;0.30;;;;;;;;;;7390623;19;20367;-77
2022/09/09 13:18:17;;;;;;;0.57;0.40;;;;;;;;;;7390008;19;20448;-76
2022/09/09 13:20:47;;;;;;;1.30;0.40;;;;;;;;;;7388580;19;20018;-76
2022/09/09 13:23:13;;;;;;;1.48;0.50;;;;;;;;;;7390562;19;20006;-76
2022/09/09 13:25:39;;;;;;;2.50;0.47;;;;;;;;;;7392661;19;20523;-77
2022/09/09 13:28:05;;;;;;;2.80;0.63;;;;;;;;;;7391871;19;20003;-77
2022/09/09 13:30:32;;;;;;;3.65;0.60;;;;;;;;;;7396902;19;20018;-78
2022/09/09 13:33:29;;;;;;;3.42;0.80;;;;;;;;;;7393984;19;20026;-78
2022/09/09 13:35:57;;;;;;;1.33;0.70;;;;;;;;;;7395352;19;20013;-77
2022/09/09 13:38:24;;;;;;;3.88;0.60;;;;;;;;;;7396313;19;20712;-77
2022/09/09 13:41:04;;;;;;;0.80;0.40;;;;;;;;;;7390071;19;20081;-78
2022/09/09 13:43:33;;;;;;;1.75;0.63;;;;;;;;;;7392383;19;20011;-76
2022/09/09 13:46:01;;;;;;;0.85;0.50;;;;;;;;;;7397662;19;20003;-77
2022/09/09 13:48:27;;;;;;;2.50;0.70;;;;;;;;;;7394994;19;20009;-77
2022/09/09 13:51:05;;;;;;;4.78;0.50;;;;;;;;;;7391500;19;20078;-77
2022/09/09 13:53:30;;;;;;;1.70;0.60;;;;;;;;;;7393470;19;20002;-77
2022/09/09 13:55:57;;;;;;;0.80;0.50;;;;;;;;;;7392445;19;20354;-77
2022/09/09 13:58:23;;;;;;;1.95;0.50;;;;;;;;;;7386223;19;20022;-77
2022/09/09 14:00:49;;;;;;;2.05;0.82;;;;;;;;;;7387609;19;20010;-77
2022/09/09 14:03:15;;;;;;;1.08;0.60;;;;;;;;;;7393854;19;20007;-77
2022/09/09 14:05:40;;;;;;;2.60;0.52;;;;;;;;;;7393557;19;20041;-76
2022/09/09 14:08:07;;;;;;;0.90;0.30;;;;;;;;;;7392913;19;20010;-77
2022/09/09 14:10:36;;;;;;;0.68;0.28;;;;;;;;;;7396269;19;20010;-75
2022/09/09 14:13:02;;;;;;;1.10;0.38;;;;;;;;;;7392022;19;20442;-74
2022/09/09 14:15:28;;;;;;;1.85;0.60;;;;;;;;;;7388645;19;20035;-75
2022/09/09 14:17:54;;;;;;;2.65;0.38;;;;;;;;;;7392149;19;20693;-75
2022/09/09 14:20:20;;;;;;;2.22;0.40;;;;;;;;;;7393623;19;20018;-75
2022/09/09 14:22:46;;;;;;;5.22;0.50;;;;;;;;;;7392356;19;20007;-75
2022/09/09 14:25:13;;;;;;;1.08;0.40;;;;;;;;;;7393719;19;20363;-76
2022/09/09 14:27:39;;;;;;;2.50;0.50;;;;;;;;;;7391673;19;20017;-75
2022/09/09 14:30:05;;;;;;;1.95;0.88;;;;;;;;;;7389545;19;20074;-76
2022/09/09 14:32:31;;;;;;;2.40;1.27;;;;;;;;;;7390985;19;20018;-76
2022/09/09 14:34:56;;;;;;;1.75;0.68;;;;;;;;;;7394518;19;20015;-76
2022/09/09 14:37:21;;;;;;;2.63;0.77;;;;;;;;;;7392242;19;20019;-76
2022/09/09 14:39:47;;;;;;;2.40;0.55;;;;;;;;;;7386660;19;20007;-76
2022/09/09 14:42:14;;;;;;;1.00;0.40;;;;;;;;;;7390110;19;20015;-75
2022/09/09 14:44:40;;;;;;;1.33;0.50;;;;;;;;;;7390154;19;20027;-76
2022/09/09 14:47:07;;;;;;;3.00;0.60;;;;;;;;;;7391095;19;20010;-76
2022/09/09 14:49:33;;;;;;;1.75;0.50;;;;;;;;;;7386151;19;20018;-75
2022/09/09 14:51:58;;;;;;;3.00;0.60;;;;;;;;;;7389870;19;20017;-77
2022/09/09 14:54:24;;;;;;;1.63;0.55;;;;;;;;;;7397276;19;20007;-76
2022/09/09 14:56:49;;;;;;;2.22;0.50;;;;;;;;;;7399657;19;20002;-75
2022/09/09 14:59:14;;;;;;;6.18;0.60;;;;;;;;;;7395054;19;20126;-76
2022/09/09 15:01:40;;;;;;;3.22;0.77;;;;;;;;;;7392436;19;20022;-74
2022/09/09 15:04:06;;;;;;;1.95;0.30;;;;;;;;;;7389616;19;20010;-76
2022/09/09 15:06:34;;;;;;;1.85;0.60;;;;;;;;;;7391617;19;20033;-76
2022/09/09 15:09:00;;;;;;;3.05;0.50;;;;;;;;;;7393266;19;20018;-75